sensor_id;sensor_type;location;lat;lon;timestamp;pressure;altitude;pressure_sealevel;temperature;humidity
48644;BME280;34928;37.302;-121.984;2023-04-09T00:05:57;101224.0;;;28.27;24.88
48644;BME280;34928;37.302;-121.984;2023-04-09T00:16:03;101225.0;;;28.41;25.08
48644;BME280;34928;37.302;-121.984;2023-04-09T00:26:07;101223.0;;;28.53;24.95
48644;BME280;34928;37.302;-121.984;2023-04-09T00:36:12;101233.0;;;28.06;24.72
48644;BME280;34928;37.302;-121.984;2023-04-09T00:46:17;101225.0;;;28.17;24.55
48644;BME280;34928;37.302;-121.984;2023-04-09T00:56:23;101228.0;;;28.17;24.57
48644;BME280;34928;37.302;-121.984;2023-04-09T01:06:33;101231.0;;;28.52;24.31
48644;BME280;34928;37.302;-121.984;2023-04-09T01:16:46;101235.0;;;28.07;24.60
48644;BME280;34928;37.302;-121.984;2023-04-09T01:26:57;101243.0;;;27.97;24.61
48644;BME280;34928;37.302;-121.984;2023-04-09T01:37:03;101240.0;;;27.87;24.59
48644;BME280;34928;37.302;-121.984;2023-04-09T01:47:08;101237.0;;;28.10;24.59
48644;BME280;34928;37.302;-121.984;2023-04-09T01:57:12;101234.0;;;28.17;23.28
48644;BME280;34928;37.302;-121.984;2023-04-09T02:07:24;101238.0;;;28.38;22.94
48644;BME280;34928;37.302;-121.984;2023-04-09T02:17:32;101246.0;;;28.34;23.25
48644;BME280;34928;37.302;-121.984;2023-04-09T02:27:38;101257.0;;;28.54;23.80
48644;BME280;34928;37.302;-121.984;2023-04-09T02:37:47;101267.0;;;28.63;23.72
48644;BME280;34928;37.302;-121.984;2023-04-09T02:47:52;101281.0;;;28.39;23.78
48644;BME280;34928;37.302;-121.984;2023-04-09T02:57:57;101290.0;;;28.62;23.64
48644;BME280;34928;37.302;-121.984;2023-04-09T03:08:02;101290.0;;;28.40;23.74
48644;BME280;34928;37.302;-121.984;2023-04-09T03:18:08;101300.0;;;28.72;23.32
48644;BME280;34928;37.302;-121.984;2023-04-09T03:28:13;101313.0;;;28.14;23.57
48644;BME280;34928;37.302;-121.984;2023-04-09T03:38:17;101324.0;;;28.09;23.99
48644;BME280;34928;37.302;-121.984;2023-04-09T03:48:22;101342.0;;;27.96;23.74
48644;BME280;34928;37.302;-121.984;2023-04-09T03:58:27;101356.0;;;28.17;23.42
48644;BME280;34928;37.302;-121.984;2023-04-09T04:08:32;101376.0;;;27.86;23.85
48644;BME280;34928;37.302;-121.984;2023-04-09T04:18:37;101400.0;;;27.86;24.08
48644;BME280;34928;37.302;-121.984;2023-04-09T04:28:42;101412.0;;;28.08;24.15
48644;BME280;34928;37.302;-121.984;2023-04-09T04:38:48;101433.0;;;27.67;24.19
48644;BME280;34928;37.302;-121.984;2023-04-09T04:48:52;101450.0;;;28.07;23.99
48644;BME280;34928;37.302;-121.984;2023-04-09T04:58:57;101464.0;;;27.99;23.83
48644;BME280;34928;37.302;-121.984;2023-04-09T05:09:02;101477.0;;;27.84;24.00
48644;BME280;34928;37.302;-121.984;2023-04-09T05:19:08;101491.0;;;27.43;24.38
48644;BME280;34928;37.302;-121.984;2023-04-09T05:29:13;101493.0;;;27.70;24.80
48644;BME280;34928;37.302;-121.984;2023-04-09T05:39:17;101495.0;;;27.51;24.95
48644;BME280;34928;37.302;-121.984;2023-04-09T05:49:23;101497.0;;;27.26;24.83
48644;BME280;34928;37.302;-121.984;2023-04-09T05:59:27;101502.0;;;27.12;24.74
48644;BME280;34928;37.302;-121.984;2023-04-09T06:09:32;101500.0;;;27.09;24.65
48644;BME280;34928;37.302;-121.984;2023-04-09T06:19:37;101494.0;;;27.19;24.38
48644;BME280;34928;37.302;-121.984;2023-04-09T06:29:43;101501.0;;;27.15;24.45
48644;BME280;34928;37.302;-121.984;2023-04-09T06:39:47;101504.0;;;27.09;24.28
48644;BME280;34928;37.302;-121.984;2023-04-09T06:49:53;101502.0;;;27.27;24.17
48644;BME280;34928;37.302;-121.984;2023-04-09T06:59:57;101501.0;;;27.08;24.43
48644;BME280;34928;37.302;-121.984;2023-04-09T07:10:05;101507.0;;;27.18;24.32
48644;BME280;34928;37.302;-121.984;2023-04-09T07:20:13;101509.0;;;26.89;24.31
48644;BME280;34928;37.302;-121.984;2023-04-09T07:30:18;101515.0;;;26.82;24.26
48644;BME280;34928;37.302;-121.984;2023-04-09T07:40:22;101520.0;;;26.99;24.28
48644;BME280;34928;37.302;-121.984;2023-04-09T07:50:28;101520.0;;;26.65;24.39
48644;BME280;34928;37.302;-121.984;2023-04-09T08:00:33;101521.0;;;26.53;24.42
48644;BME280;34928;37.302;-121.984;2023-04-09T08:10:38;101525.0;;;26.73;24.65
48644;BME280;34928;37.302;-121.984;2023-04-09T08:20:42;101528.0;;;26.62;24.47
48644;BME280;34928;37.302;-121.984;2023-04-09T08:30:48;101530.0;;;26.55;24.60
48644;BME280;34928;37.302;-121.984;2023-04-09T08:40:52;101532.0;;;26.44;24.46
48644;BME280;34928;37.302;-121.984;2023-04-09T08:50:58;101533.0;;;26.43;24.61
48644;BME280;34928;37.302;-121.984;2023-04-09T09:01:02;101531.0;;;26.28;24.72
48644;BME280;34928;37.302;-121.984;2023-04-09T09:11:07;101526.0;;;26.14;24.54
48644;BME280;34928;37.302;-121.984;2023-04-09T09:21:14;101518.0;;;26.29;24.57
48644;BME280;34928;37.302;-121.984;2023-04-09T09:31:18;101514.0;;;25.93;24.41
48644;BME280;34928;37.302;-121.984;2023-04-09T09:41:23;101513.0;;;25.74;24.54
48644;BME280;34928;37.302;-121.984;2023-04-09T09:51:30;101502.0;;;26.13;24.52
48644;BME280;34928;37.302;-121.984;2023-04-09T10:01:38;101494.0;;;25.80;24.96
48644;BME280;34928;37.302;-121.984;2023-04-09T10:11:42;101493.0;;;25.43;24.64
48644;BME280;34928;37.302;-121.984;2023-04-09T10:21:52;101484.0;;;25.78;24.75
48644;BME280;34928;37.302;-121.984;2023-04-09T10:32:04;101479.0;;;25.42;24.61
48644;BME280;34928;37.302;-121.984;2023-04-09T10:42:10;101478.0;;;25.32;24.74
48644;BME280;34928;37.302;-121.984;2023-04-09T10:52:29;101476.0;;;25.12;24.68
48644;BME280;34928;37.302;-121.984;2023-04-09T11:12:52;101468.0;;;25.14;24.54
48644;BME280;34928;37.302;-121.984;2023-04-09T11:22:59;101473.0;;;25.19;24.53
48644;BME280;34928;37.302;-121.984;2023-04-09T11:33:03;101470.0;;;24.90;24.84
48644;BME280;34928;37.302;-121.984;2023-04-09T11:43:08;101463.0;;;25.01;24.67
48644;BME280;34928;37.302;-121.984;2023-04-09T11:53:17;101469.0;;;24.81;24.60
48644;BME280;34928;37.302;-121.984;2023-04-09T12:03:30;101461.0;;;24.85;24.80
48644;BME280;34928;37.302;-121.984;2023-04-09T12:13:38;101461.0;;;24.96;24.57
48644;BME280;34928;37.302;-121.984;2023-04-09T12:23:42;101463.0;;;24.87;24.55
48644;BME280;34928;37.302;-121.984;2023-04-09T12:33:47;101466.0;;;24.41;25.00
48644;BME280;34928;37.302;-121.984;2023-04-09T12:43:53;101464.0;;;24.63;24.70
48644;BME280;34928;37.302;-121.984;2023-04-09T12:53:57;101462.0;;;24.22;24.80
48644;BME280;34928;37.302;-121.984;2023-04-09T13:04:02;101464.0;;;24.47;24.48
48644;BME280;34928;37.302;-121.984;2023-04-09T13:14:07;101475.0;;;24.34;24.68
48644;BME280;34928;37.302;-121.984;2023-04-09T13:24:12;101480.0;;;24.63;24.56
48644;BME280;34928;37.302;-121.984;2023-04-09T13:34:17;101482.0;;;24.27;24.52
48644;BME280;34928;37.302;-121.984;2023-04-09T13:44:23;101490.0;;;24.27;24.63
48644;BME280;34928;37.302;-121.984;2023-04-09T13:54:27;101501.0;;;24.93;24.25
48644;BME280;34928;37.302;-121.984;2023-04-09T14:04:32;101509.0;;;25.31;24.06
48644;BME280;34928;37.302;-121.984;2023-04-09T14:14:37;101514.0;;;25.70;23.92
48644;BME280;34928;37.302;-121.984;2023-04-09T14:24:43;101521.0;;;25.73;23.82
48644;BME280;34928;37.302;-121.984;2023-04-09T14:34:47;101534.0;;;26.27;23.76
48644;BME280;34928;37.302;-121.984;2023-04-09T14:44:53;101539.0;;;25.88;23.68
48644;BME280;34928;37.302;-121.984;2023-04-09T14:54:57;101543.0;;;25.85;24.00
48644;BME280;34928;37.302;-121.984;2023-04-09T15:05:04;101565.0;;;25.46;24.11
48644;BME280;34928;37.302;-121.984;2023-04-09T15:15:08;101572.0;;;25.67;24.31
48644;BME280;34928;37.302;-121.984;2023-04-09T15:25:13;101569.0;;;25.06;24.37
48644;BME280;34928;37.302;-121.984;2023-04-09T15:35:17;101572.0;;;25.46;24.53
48644;BME280;34928;37.302;-121.984;2023-04-09T15:45:22;101580.0;;;25.45;24.53
48644;BME280;34928;37.302;-121.984;2023-04-09T15:55:30;101579.0;;;25.60;24.21
48644;BME280;34928;37.302;-121.984;2023-04-09T16:05:38;101580.0;;;25.27;24.42
48644;BME280;34928;37.302;-121.984;2023-04-09T16:15:43;101577.0;;;25.38;24.45
48644;BME280;34928;37.302;-121.984;2023-04-09T16:25:48;101573.0;;;25.39;24.56
48644;BME280;34928;37.302;-121.984;2023-04-09T16:35:52;101575.0;;;25.45;24.38
48644;BME280;34928;37.302;-121.984;2023-04-09T16:45:57;101585.0;;;25.13;24.58
48644;BME280;34928;37.302;-121.984;2023-04-09T16:56:03;101590.0;;;25.67;24.02
48644;BME280;34928;37.302;-121.984;2023-04-09T17:06:12;101587.0;;;25.50;24.13
48644;BME280;34928;37.302;-121.984;2023-04-09T17:16:18;101579.0;;;25.65;24.00
48644;BME280;34928;37.302;-121.984;2023-04-09T17:26:22;101582.0;;;25.93;23.91
48644;BME280;34928;37.302;-121.984;2023-04-09T17:36:27;101579.0;;;26.08;23.89
48644;BME280;34928;37.302;-121.984;2023-04-09T17:46:32;101577.0;;;25.89;23.80
48644;BME280;34928;37.302;-121.984;2023-04-09T17:56:37;101590.0;;;26.20;23.76
48644;BME280;34928;37.302;-121.984;2023-04-09T18:06:42;101591.0;;;26.39;23.78
48644;BME280;34928;37.302;-121.984;2023-04-09T18:16:47;101590.0;;;26.75;23.56
48644;BME280;34928;37.302;-121.984;2023-04-09T18:26:52;101590.0;;;27.03;23.31
48644;BME280;34928;37.302;-121.984;2023-04-09T18:36:57;101585.0;;;27.13;23.47
48644;BME280;34928;37.302;-121.984;2023-04-09T18:47:03;101579.0;;;26.84;23.62
48644;BME280;34928;37.302;-121.984;2023-04-09T18:57:07;101571.0;;;27.52;23.93
48644;BME280;34928;37.302;-121.984;2023-04-09T19:07:12;101568.0;;;27.58;24.53
48644;BME280;34928;37.302;-121.984;2023-04-09T19:17:22;101556.0;;;27.74;24.82
48644;BME280;34928;37.302;-121.984;2023-04-09T19:27:27;101550.0;;;27.78;24.93
48644;BME280;34928;37.302;-121.984;2023-04-09T19:37:32;101537.0;;;27.57;25.33
48644;BME280;34928;37.302;-121.984;2023-04-09T19:47:37;101531.0;;;27.41;25.28
48644;BME280;34928;37.302;-121.984;2023-04-09T19:57:42;101528.0;;;27.86;25.51
48644;BME280;34928;37.302;-121.984;2023-04-09T20:07:47;101520.0;;;27.66;25.61
48644;BME280;34928;37.302;-121.984;2023-04-09T20:17:53;101506.0;;;27.97;25.62
48644;BME280;34928;37.302;-121.984;2023-04-09T20:27:57;101500.0;;;27.78;25.61
48644;BME280;34928;37.302;-121.984;2023-04-09T20:38:02;101485.0;;;27.35;25.34
48644;BME280;34928;37.302;-121.984;2023-04-09T20:48:07;101479.0;;;27.34;25.85
48644;BME280;34928;37.302;-121.984;2023-04-09T20:58:12;101461.0;;;27.73;25.51
48644;BME280;34928;37.302;-121.984;2023-04-09T21:08:17;101449.0;;;28.03;25.59
48644;BME280;34928;37.302;-121.984;2023-04-09T21:18:22;101448.0;;;27.83;25.73
48644;BME280;34928;37.302;-121.984;2023-04-09T21:28:27;101437.0;;;27.85;25.66
48644;BME280;34928;37.302;-121.984;2023-04-09T21:38:32;101431.0;;;28.09;25.04
48644;BME280;34928;37.302;-121.984;2023-04-09T21:48:37;101411.0;;;27.83;25.02
48644;BME280;34928;37.302;-121.984;2023-04-09T21:58:42;101401.0;;;27.95;24.16
48644;BME280;34928;37.302;-121.984;2023-04-09T22:08:47;101388.0;;;28.03;23.38
48644;BME280;34928;37.302;-121.984;2023-04-09T22:18:52;101376.0;;;28.18;22.79
48644;BME280;34928;37.302;-121.984;2023-04-09T22:28:57;101375.0;;;28.24;23.55
48644;BME280;34928;37.302;-121.984;2023-04-09T22:39:02;101358.0;;;28.66;22.80
48644;BME280;34928;37.302;-121.984;2023-04-09T22:49:07;101351.0;;;28.74;22.64
48644;BME280;34928;37.302;-121.984;2023-04-09T22:59:13;101345.0;;;28.57;22.90
48644;BME280;34928;37.302;-121.984;2023-04-09T23:09:17;101343.0;;;28.92;22.46
48644;BME280;34928;37.302;-121.984;2023-04-09T23:19:22;101333.0;;;28.91;22.27
48644;BME280;34928;37.302;-121.984;2023-04-09T23:29:27;101321.0;;;28.96;21.80
48644;BME280;34928;37.302;-121.984;2023-04-09T23:39:32;101313.0;;;29.05;21.61
48644;BME280;34928;37.302;-121.984;2023-04-09T23:49:38;101303.0;;;29.20;21.45
48644;BME280;34928;37.302;-121.984;2023-04-09T23:59:42;101294.0;;;29.11;21.69
